createdAt,value
2019-05-13T00:00:39.835Z,1033.66
2019-05-13T00:01:39.821Z,1033.66
2019-05-13T00:02:39.819Z,1033.69
2019-05-13T00:03:39.800Z,1033.66
2019-05-13T00:04:39.797Z,1033.76
2019-05-13T00:05:39.799Z,1033.72
2019-05-13T00:06:53.130Z,1033.71
2019-05-13T00:07:40.756Z,1033.71
2019-05-13T00:08:39.750Z,1033.70
2019-05-13T00:09:39.737Z,1033.70
2019-05-13T00:10:39.747Z,1033.71
2019-05-13T00:11:39.719Z,1033.69
2019-05-13T00:12:39.707Z,1033.70
2019-05-13T00:13:39.701Z,1033.67
2019-05-13T00:14:39.685Z,1033.66
2019-05-13T00:15:39.674Z,1033.71
2019-05-13T00:16:39.686Z,1033.70
2019-05-13T00:17:39.654Z,1033.65
2019-05-13T00:18:39.647Z,1033.66
2019-05-13T00:19:39.634Z,1033.71
2019-05-13T00:20:39.627Z,1033.74
2019-05-13T00:21:39.610Z,1033.70
2019-05-13T00:22:39.630Z,1033.70
2019-05-13T00:23:39.591Z,1033.71
2019-05-13T00:24:39.579Z,1033.73
2019-05-13T00:25:39.573Z,1033.77
2019-05-13T00:26:39.555Z,1033.73
2019-05-13T00:27:39.567Z,1033.68
2019-05-13T00:28:39.546Z,1033.72
2019-05-13T00:29:39.523Z,1033.65
2019-05-13T00:30:39.518Z,1033.72
2019-05-13T00:31:39.510Z,1033.70
2019-05-13T00:32:39.518Z,1033.72
2019-05-13T00:33:39.483Z,1033.69
2019-05-13T00:34:39.475Z,1033.73
2019-05-13T00:35:39.461Z,1033.70
2019-05-13T00:36:39.471Z,1033.69
2019-05-13T00:37:39.442Z,1033.68
2019-05-13T00:38:40.427Z,1033.68
2019-05-13T00:39:39.420Z,1033.74
2019-05-13T00:40:39.421Z,1033.70
2019-05-13T00:41:39.398Z,1033.66
2019-05-13T00:42:39.409Z,1033.66
2019-05-13T00:43:39.382Z,1033.70
2019-05-13T00:44:39.386Z,1033.71
2019-05-13T00:45:39.355Z,1033.71
2019-05-13T00:46:39.350Z,1033.73
2019-05-13T00:47:39.335Z,1033.73
2019-05-13T00:48:39.326Z,1033.73
2019-05-13T00:49:39.344Z,1033.77
2019-05-13T00:50:39.305Z,1033.68
2019-05-13T00:51:39.293Z,1033.69
2019-05-13T00:52:39.285Z,1033.68
2019-05-13T00:53:39.272Z,1033.64
2019-05-13T00:54:39.289Z,1033.61
2019-05-13T00:55:39.255Z,1033.61
2019-05-13T00:56:39.243Z,1033.59
2019-05-13T00:57:39.229Z,1033.56
2019-05-13T00:58:39.238Z,1033.57
2019-05-13T00:59:39.239Z,1033.58
2019-05-13T01:00:39.204Z,1033.61
2019-05-13T01:01:39.190Z,1033.59
2019-05-13T01:02:39.182Z,1033.63
2019-05-13T01:03:39.174Z,1033.65
2019-05-13T01:04:39.165Z,1033.66
2019-05-13T01:05:39.171Z,1033.64
2019-05-13T01:06:39.143Z,1033.63
2019-05-13T01:07:39.143Z,1033.63
2019-05-13T01:08:39.121Z,1033.57
2019-05-13T01:09:39.127Z,1033.62
2019-05-13T01:10:39.100Z,1033.65
2019-05-13T01:11:39.085Z,1033.68
2019-05-13T01:12:39.080Z,1033.63
2019-05-13T01:13:39.068Z,1033.65
2019-05-13T01:14:39.075Z,1033.66
2019-05-13T01:15:39.042Z,1033.68
2019-05-13T01:16:39.050Z,1033.71
2019-05-13T01:17:39.025Z,1033.68
2019-05-13T01:18:39.012Z,1033.69
2019-05-13T01:19:39.025Z,1033.68
2019-05-13T01:20:38.997Z,1033.70
2019-05-13T01:21:38.982Z,1033.64
2019-05-13T01:22:38.976Z,1033.63
2019-05-13T01:23:38.974Z,1033.60
2019-05-13T01:24:38.971Z,1033.60
2019-05-13T01:25:38.948Z,1033.67
2019-05-13T01:26:38.928Z,1033.67
2019-05-13T01:27:38.920Z,1033.61
2019-05-13T01:28:38.910Z,1033.59
2019-05-13T01:29:38.922Z,1033.59
2019-05-13T01:30:38.889Z,1033.68
2019-05-13T01:31:38.877Z,1033.67
2019-05-13T01:32:38.869Z,1033.76
2019-05-13T01:33:38.858Z,1033.75
2019-05-13T01:34:38.882Z,1033.73
2019-05-13T01:35:38.838Z,1033.67
2019-05-13T01:36:38.825Z,1033.73
2019-05-13T01:37:42.522Z,1033.72
2019-05-13T01:38:39.805Z,1033.75
2019-05-13T01:39:38.812Z,1033.77
2019-05-13T01:40:38.788Z,1033.73
2019-05-13T01:41:38.771Z,1033.78
2019-05-13T01:42:38.762Z,1033.72
2019-05-13T01:43:38.766Z,1033.73
2019-05-13T01:44:38.758Z,1033.73
2019-05-13T01:45:38.731Z,1033.73
2019-05-13T01:46:38.720Z,1033.70
2019-05-13T01:47:38.712Z,1033.75
2019-05-13T01:48:38.699Z,1033.75
2019-05-13T01:49:38.708Z,1033.77
2019-05-13T01:50:38.676Z,1033.75
2019-05-13T01:51:38.691Z,1033.77
2019-05-13T01:52:38.695Z,1033.75
2019-05-13T01:53:38.646Z,1033.74
2019-05-13T01:54:38.660Z,1033.77
2019-05-13T01:55:38.625Z,1033.77
2019-05-13T01:56:38.615Z,1033.78
2019-05-13T01:57:38.605Z,1033.78
2019-05-13T01:58:38.591Z,1033.81
2019-05-13T01:59:38.584Z,1033.86
2019-05-13T02:00:38.597Z,1033.79
2019-05-13T02:01:38.565Z,1033.77
2019-05-13T02:02:38.548Z,1033.76
2019-05-13T02:03:38.541Z,1033.76
2019-05-13T02:04:38.529Z,1033.75
2019-05-13T02:05:38.516Z,1033.82
2019-05-13T02:06:38.525Z,1033.85
2019-05-13T02:07:38.501Z,1033.89
2019-05-13T02:08:38.485Z,1033.92
2019-05-13T02:09:38.476Z,1033.90
2019-05-13T02:10:38.479Z,1033.89
2019-05-13T02:11:38.474Z,1033.96
2019-05-13T02:12:38.444Z,1033.98
2019-05-13T02:13:38.434Z,1033.95
2019-05-13T02:14:38.421Z,1034.01
2019-05-13T02:15:38.410Z,1034.02
2019-05-13T02:16:38.426Z,1034.09
2019-05-13T02:17:38.391Z,1034.05
2019-05-13T02:18:38.377Z,1034.06
2019-05-13T02:19:38.380Z,1034.02
2019-05-13T02:20:38.360Z,1033.97
2019-05-13T02:21:38.370Z,1033.94
2019-05-13T02:22:38.339Z,1033.93
2019-05-13T02:23:38.327Z,1033.93
2019-05-13T02:24:38.317Z,1033.95
2019-05-13T02:25:38.303Z,1033.97
2019-05-13T02:26:38.297Z,1034.00
2019-05-13T02:27:38.301Z,1033.98
2019-05-13T02:28:38.280Z,1033.93
2019-05-13T02:29:38.262Z,1033.98
2019-05-13T02:30:38.251Z,1034.00
2019-05-13T02:31:46.613Z,1034.01
2019-05-13T02:32:42.542Z,1034.02
2019-05-13T02:33:38.221Z,1034.10
2019-05-13T02:34:38.209Z,1034.02
2019-05-13T02:35:38.201Z,1034.05
2019-05-13T02:36:38.186Z,1033.97
2019-05-13T02:37:38.218Z,1034.01
2019-05-13T02:38:38.189Z,1034.05
2019-05-13T02:39:38.157Z,1034.07
2019-05-13T02:40:38.144Z,1034.02
2019-05-13T02:41:38.135Z,1034.04
2019-05-13T02:42:38.126Z,1033.99
2019-05-13T02:43:41.385Z,1034.07
2019-05-13T02:44:39.111Z,1034.05
2019-05-13T02:45:38.093Z,1034.03
2019-05-13T02:46:38.083Z,1034.06
2019-05-13T02:47:38.073Z,1034.05
2019-05-13T02:48:38.080Z,1034.07
2019-05-13T02:49:38.055Z,1034.04
2019-05-13T02:50:38.039Z,1034.07
2019-05-13T02:51:38.029Z,1034.07
2019-05-13T02:52:38.020Z,1034.08
2019-05-13T02:53:38.008Z,1034.07
2019-05-13T02:54:38.020Z,1034.09
2019-05-13T02:55:37.995Z,1034.06
2019-05-13T02:56:37.977Z,1034.10
2019-05-13T02:57:37.967Z,1034.08
2019-05-13T02:58:37.953Z,1034.09
2019-05-13T02:59:37.969Z,1034.09
2019-05-13T03:00:37.935Z,1034.08
2019-05-13T03:01:37.924Z,1034.11
2019-05-13T03:02:37.914Z,1034.16
2019-05-13T03:03:37.905Z,1034.07
2019-05-13T03:04:37.948Z,1034.08
2019-05-13T03:05:37.883Z,1034.13
2019-05-13T03:06:37.865Z,1034.18
2019-05-13T03:07:37.859Z,1034.14
2019-05-13T03:08:48.318Z,1034.14
2019-05-13T03:09:42.058Z,1034.11
2019-05-13T03:10:37.830Z,1034.12
2019-05-13T03:11:37.815Z,1034.15
2019-05-13T03:12:37.822Z,1034.19
2019-05-13T03:13:37.794Z,1034.20
2019-05-13T03:14:37.786Z,1034.25
2019-05-13T03:15:37.793Z,1034.22
2019-05-13T03:16:37.761Z,1034.21
2019-05-13T03:17:37.759Z,1034.24
2019-05-13T03:18:37.738Z,1034.26
2019-05-13T03:19:37.727Z,1034.22
2019-05-13T03:20:37.735Z,1034.23
2019-05-13T03:21:37.729Z,1034.25
2019-05-13T03:22:37.698Z,1034.25
2019-05-13T03:23:37.684Z,1034.24
2019-05-13T03:24:37.672Z,1034.25
2019-05-13T03:25:37.707Z,1034.17
2019-05-13T03:26:37.666Z,1034.22
2019-05-13T03:27:37.641Z,1034.20
2019-05-13T03:28:37.630Z,1034.20
2019-05-13T03:29:37.620Z,1034.23
2019-05-13T03:30:37.656Z,1034.20
2019-05-13T03:31:37.618Z,1034.26
2019-05-13T03:32:44.716Z,1034.26
2019-05-13T03:33:38.578Z,1034.32
2019-05-13T03:34:37.567Z,1034.29
2019-05-13T03:35:37.637Z,1034.34
2019-05-13T03:36:37.588Z,1034.31
2019-05-13T03:37:37.533Z,1034.31
2019-05-13T03:38:58.175Z,1034.34
2019-05-13T03:39:38.518Z,1034.30
2019-05-13T03:40:37.498Z,1034.33
2019-05-13T03:41:37.489Z,1034.37
2019-05-13T03:42:37.498Z,1034.38
2019-05-13T03:43:37.469Z,1034.36
2019-05-13T03:44:37.458Z,1034.38
2019-05-13T03:45:37.445Z,1034.37
2019-05-13T03:46:37.437Z,1034.39
2019-05-13T03:47:37.444Z,1034.45
2019-05-13T03:48:37.419Z,1034.35
2019-05-13T03:49:37.415Z,1034.43
2019-05-13T03:50:37.391Z,1034.43
2019-05-13T03:51:37.383Z,1034.43
2019-05-13T03:52:37.389Z,1034.43
2019-05-13T03:53:37.356Z,1034.46
2019-05-13T03:54:37.347Z,1034.48
2019-05-13T03:55:37.338Z,1034.46
2019-05-13T03:56:37.326Z,1034.45
2019-05-13T03:57:37.338Z,1034.50
2019-05-13T03:58:37.310Z,1034.51
2019-05-13T03:59:37.299Z,1034.53
2019-05-13T04:00:37.290Z,1034.49
2019-05-13T04:01:37.278Z,1034.57
2019-05-13T04:02:37.261Z,1034.58
2019-05-13T04:03:37.269Z,1034.55
2019-05-13T04:04:37.238Z,1034.61
2019-05-13T04:05:37.226Z,1034.58
2019-05-13T04:06:37.217Z,1034.55
2019-05-13T04:07:37.222Z,1034.59
2019-05-13T04:08:37.474Z,1034.57
2019-05-13T04:09:37.187Z,1034.58
2019-05-13T04:10:37.176Z,1034.64
2019-05-13T04:11:37.164Z,1034.64
2019-05-13T04:12:37.153Z,1034.62
2019-05-13T04:13:37.168Z,1034.62
2019-05-13T04:14:37.159Z,1034.63
2019-05-13T04:15:37.125Z,1034.65
2019-05-13T04:16:37.123Z,1034.65
2019-05-13T04:17:37.101Z,1034.68
2019-05-13T04:18:37.093Z,1034.67
2019-05-13T04:19:37.106Z,1034.70
2019-05-13T04:20:37.073Z,1034.68
2019-05-13T04:21:37.060Z,1034.75
2019-05-13T04:22:37.051Z,1034.65
2019-05-13T04:23:37.041Z,1034.70
2019-05-13T04:24:37.047Z,1034.68
2019-05-13T04:25:39.634Z,1034.68
2019-05-13T04:26:38.007Z,1034.68
2019-05-13T04:27:36.998Z,1034.68
2019-05-13T04:28:36.988Z,1034.72
2019-05-13T04:29:36.997Z,1034.70
2019-05-13T04:30:36.974Z,1034.78
2019-05-13T04:31:36.954Z,1034.75
2019-05-13T04:32:36.955Z,1034.79
2019-05-13T04:33:36.936Z,1034.75
2019-05-13T04:34:36.961Z,1034.79
2019-05-13T04:35:36.915Z,1034.77
2019-05-13T04:36:36.911Z,1034.77
2019-05-13T04:37:36.894Z,1034.75
2019-05-13T04:38:36.879Z,1034.83
2019-05-13T04:39:47.689Z,1034.80
2019-05-13T04:40:37.881Z,1034.86
2019-05-13T04:41:36.846Z,1034.86
2019-05-13T04:42:36.838Z,1034.85
2019-05-13T04:43:36.831Z,1034.79
2019-05-13T04:44:36.819Z,1034.85
2019-05-13T04:45:36.828Z,1034.90
2019-05-13T04:46:36.793Z,1034.91
2019-05-13T04:47:36.783Z,1034.92
2019-05-13T04:48:39.554Z,1034.90
2019-05-13T04:49:37.766Z,1034.91
2019-05-13T04:50:36.772Z,1034.82
2019-05-13T04:51:36.741Z,1034.90
2019-05-13T04:52:36.737Z,1034.87
2019-05-13T04:53:36.728Z,1034.81
2019-05-13T04:54:36.708Z,1034.86
2019-05-13T04:55:36.722Z,1034.83
2019-05-13T04:56:36.686Z,1034.88
2019-05-13T04:57:36.680Z,1034.83
2019-05-13T04:58:36.663Z,1034.89
2019-05-13T04:59:40.304Z,1034.90
2019-05-13T05:00:37.662Z,1034.89
2019-05-13T05:01:40.340Z,1034.88
2019-05-13T05:02:43.043Z,1034.85
2019-05-13T05:03:42.075Z,1034.92
2019-05-13T05:04:37.598Z,1034.97
2019-05-13T05:05:36.589Z,1034.92
2019-05-13T05:06:36.594Z,1034.98
2019-05-13T05:07:36.570Z,1035.00
2019-05-13T05:08:36.553Z,1035.00
2019-05-13T05:09:40.332Z,1034.96
2019-05-13T05:10:38.787Z,1035.00
2019-05-13T05:11:36.550Z,1035.06
2019-05-13T05:12:36.512Z,1035.04
2019-05-13T05:13:36.501Z,1035.00
2019-05-13T05:14:36.496Z,1035.03
2019-05-13T05:15:36.479Z,1035.01
2019-05-13T05:16:36.470Z,1035.02
2019-05-13T05:17:36.482Z,1035.04
2019-05-13T05:18:36.449Z,1035.01
2019-05-13T05:19:36.450Z,1035.06
2019-05-13T05:20:36.425Z,1034.98
2019-05-13T05:21:36.417Z,1035.00
2019-05-13T05:22:36.433Z,1035.00
2019-05-13T05:23:36.392Z,1035.05
2019-05-13T05:24:36.384Z,1035.02
2019-05-13T05:25:36.373Z,1035.00
2019-05-13T05:26:36.363Z,1035.02
2019-05-13T05:27:36.421Z,1035.00
2019-05-13T05:28:36.351Z,1035.02
2019-05-13T05:29:36.331Z,1034.95
2019-05-13T05:30:36.319Z,1034.96
2019-05-13T05:31:36.310Z,1035.01
2019-05-13T05:32:36.407Z,1035.01
2019-05-13T05:33:36.288Z,1034.98
2019-05-13T05:34:36.278Z,1035.00
2019-05-13T05:35:36.266Z,1034.98
2019-05-13T05:36:36.253Z,1035.02
2019-05-13T05:37:36.267Z,1035.01
2019-05-13T05:38:36.231Z,1035.01
2019-05-13T05:39:36.220Z,1035.04
2019-05-13T05:40:36.213Z,1035.06
2019-05-13T05:41:36.199Z,1035.07
2019-05-13T05:42:36.207Z,1035.02
2019-05-13T05:43:36.180Z,1035.04
2019-05-13T05:44:36.171Z,1035.01
2019-05-13T05:45:36.160Z,1035.08
2019-05-13T05:46:36.153Z,1035.03
2019-05-13T05:47:36.162Z,1035.06
2019-05-13T05:48:36.123Z,1034.99
2019-05-13T05:49:36.142Z,1035.03
2019-05-13T05:50:36.100Z,1035.05
2019-05-13T05:51:36.091Z,1035.11
2019-05-13T05:52:36.104Z,1035.12
2019-05-13T05:53:36.068Z,1035.07
2019-05-13T05:54:36.071Z,1035.07
2019-05-13T05:55:36.057Z,1035.10
2019-05-13T05:56:36.038Z,1035.10
2019-05-13T05:57:36.044Z,1035.07
2019-05-13T05:58:36.014Z,1035.11
2019-05-13T05:59:36.006Z,1035.15
2019-05-13T06:00:35.991Z,1035.10
2019-05-13T06:01:37.453Z,1035.09
2019-05-13T06:02:35.993Z,1035.07
2019-05-13T06:03:35.960Z,1035.11
2019-05-13T06:04:35.959Z,1035.11
2019-05-13T06:05:35.937Z,1035.10
2019-05-13T06:06:35.927Z,1035.13
2019-05-13T06:07:35.957Z,1035.14
2019-05-13T06:08:35.908Z,1035.09
2019-05-13T06:09:35.896Z,1035.09
2019-05-13T06:10:46.263Z,1035.11
2019-05-13T06:11:36.879Z,1035.18
2019-05-13T06:12:35.862Z,1035.14
2019-05-13T06:13:35.885Z,1035.16
2019-05-13T06:14:35.841Z,1035.17
2019-05-13T06:15:35.831Z,1035.19
2019-05-13T06:16:35.827Z,1035.18
2019-05-13T06:17:35.816Z,1035.16
2019-05-13T06:18:35.819Z,1035.18
2019-05-13T06:19:35.789Z,1035.17
2019-05-13T06:20:35.779Z,1035.18
2019-05-13T06:21:35.769Z,1035.14
2019-05-13T06:22:35.760Z,1035.19
2019-05-13T06:23:35.765Z,1035.17
2019-05-13T06:24:35.736Z,1035.24
2019-05-13T06:25:35.725Z,1035.17
2019-05-13T06:26:35.714Z,1035.20
2019-05-13T06:27:35.704Z,1035.15
2019-05-13T06:28:35.715Z,1035.18
2019-05-13T06:29:35.684Z,1035.19
2019-05-13T06:30:35.673Z,1035.15
2019-05-13T06:31:35.676Z,1035.17
2019-05-13T06:32:35.652Z,1035.14
2019-05-13T06:33:35.664Z,1035.16
2019-05-13T06:34:35.631Z,1035.16
2019-05-13T06:35:35.627Z,1035.16
2019-05-13T06:36:35.610Z,1035.16
2019-05-13T06:37:35.602Z,1035.16
2019-05-13T06:38:35.614Z,1035.16
2019-05-13T06:39:35.578Z,1035.19
2019-05-13T06:40:35.573Z,1035.16
2019-05-13T06:41:35.559Z,1035.17
2019-05-13T06:42:35.546Z,1035.20
2019-05-13T06:43:35.539Z,1035.27
2019-05-13T06:44:35.547Z,1035.18
2019-05-13T06:45:35.522Z,1035.24
2019-05-13T06:46:35.510Z,1035.19
2019-05-13T06:47:36.246Z,1035.24
2019-05-13T06:48:35.488Z,1035.20
2019-05-13T06:49:35.503Z,1035.21
2019-05-13T06:50:35.464Z,1035.20
2019-05-13T06:51:35.455Z,1035.21
2019-05-13T06:52:35.483Z,1035.19
2019-05-13T06:53:35.444Z,1035.19
2019-05-13T06:54:35.446Z,1035.19
2019-05-13T06:55:35.411Z,1035.24
2019-05-13T06:56:35.403Z,1035.12
2019-05-13T06:57:35.390Z,1035.14
2019-05-13T06:58:35.381Z,1035.10
2019-05-13T06:59:35.369Z,1035.14
2019-05-13T07:00:35.382Z,1035.10
2019-05-13T07:01:35.359Z,1035.15
2019-05-13T07:02:35.338Z,1035.10
2019-05-13T07:03:35.328Z,1035.20
2019-05-13T07:04:35.318Z,1035.13
2019-05-13T07:05:35.336Z,1035.14
2019-05-13T07:06:35.298Z,1035.18
2019-05-13T07:07:35.285Z,1035.15
2019-05-13T07:08:35.275Z,1035.12
2019-05-13T07:09:35.269Z,1035.10
2019-05-13T07:10:35.275Z,1035.08
2019-05-13T07:11:35.295Z,1035.10
2019-05-13T07:12:35.232Z,1035.10
2019-05-13T07:13:35.225Z,1035.10
2019-05-13T07:14:35.224Z,1035.06
2019-05-13T07:15:35.219Z,1035.10
2019-05-13T07:16:35.192Z,1035.07
2019-05-13T07:17:35.182Z,1035.05
2019-05-13T07:18:35.179Z,1035.02
2019-05-13T07:19:35.159Z,1035.11
2019-05-13T07:20:35.169Z,1035.09
2019-05-13T07:21:35.136Z,1035.09
2019-05-13T07:22:35.145Z,1035.06
2019-05-13T07:23:35.118Z,1035.05
2019-05-13T07:24:35.120Z,1035.07
2019-05-13T07:25:35.118Z,1035.10
2019-05-13T07:26:35.084Z,1035.10
2019-05-13T07:27:35.075Z,1035.03
2019-05-13T07:28:35.064Z,1035.07
2019-05-13T07:29:35.052Z,1035.03
2019-05-13T07:30:35.059Z,1035.09
2019-05-13T07:31:35.037Z,1035.05
2019-05-13T07:32:35.021Z,1035.07
2019-05-13T07:33:35.011Z,1035.04
2019-05-13T07:34:35.000Z,1035.07
2019-05-13T07:35:37.960Z,1035.09
2019-05-13T07:36:34.988Z,1035.06
2019-05-13T07:37:34.969Z,1035.07
2019-05-13T07:38:34.956Z,1035.06
2019-05-13T07:39:34.944Z,1035.05
2019-05-13T07:40:34.959Z,1035.06
2019-05-13T07:41:39.184Z,1035.10
2019-05-13T07:42:35.917Z,1035.07
2019-05-13T07:43:34.903Z,1035.11
2019-05-13T07:44:34.893Z,1035.12
2019-05-13T07:45:35.000Z,1035.05
2019-05-13T07:46:34.891Z,1035.04
2019-05-13T07:47:34.863Z,1035.05
2019-05-13T07:48:34.850Z,1035.02
2019-05-13T07:49:34.843Z,1035.06
2019-05-13T07:50:34.835Z,1035.01
2019-05-13T07:51:34.838Z,1035.03
2019-05-13T07:52:34.810Z,1035.02
2019-05-13T07:53:34.797Z,1035.04
2019-05-13T07:54:34.792Z,1035.06
2019-05-13T07:55:34.779Z,1035.05
2019-05-13T07:56:34.833Z,1035.06
2019-05-13T07:57:34.757Z,1035.06
2019-05-13T07:58:37.650Z,1035.05
2019-05-13T07:59:34.738Z,1035.01
2019-05-13T08:00:34.731Z,1034.97
2019-05-13T08:01:34.712Z,1035.00
2019-05-13T08:02:34.721Z,1035.05
2019-05-13T08:03:34.690Z,1035.08
2019-05-13T08:04:34.693Z,1035.00
2019-05-13T08:05:34.670Z,1035.01
2019-05-13T08:06:34.673Z,1035.01
2019-05-13T08:07:34.686Z,1035.01
2019-05-13T08:08:34.639Z,1034.91
2019-05-13T08:09:34.629Z,1034.92
2019-05-13T08:10:34.617Z,1034.99
2019-05-13T08:11:40.150Z,1034.97
2019-05-13T08:12:35.613Z,1034.99
2019-05-13T08:13:34.586Z,1034.94
2019-05-13T08:14:34.638Z,1034.94
2019-05-13T08:15:34.564Z,1034.92
2019-05-13T08:16:34.552Z,1034.93
2019-05-13T08:17:34.620Z,1034.95
2019-05-13T08:18:34.532Z,1034.92
2019-05-13T08:19:34.521Z,1034.92
2019-05-13T08:20:34.512Z,1034.86
2019-05-13T08:21:34.514Z,1034.86
2019-05-13T08:22:36.032Z,1034.91
2019-05-13T08:23:34.479Z,1034.93
2019-05-13T08:24:34.467Z,1034.94
2019-05-13T08:25:34.457Z,1034.99
2019-05-13T08:26:37.951Z,1034.93
2019-05-13T08:27:35.457Z,1035.00
2019-05-13T08:28:34.425Z,1034.93
2019-05-13T08:29:34.414Z,1034.91
2019-05-13T08:30:34.403Z,1034.94
2019-05-13T08:31:34.406Z,1034.93
2019-05-13T08:32:34.389Z,1034.91
2019-05-13T08:33:34.392Z,1034.88
2019-05-13T08:34:34.362Z,1034.88
2019-05-13T08:35:34.352Z,1034.87
2019-05-13T08:36:34.340Z,1034.83
2019-05-13T08:37:34.350Z,1034.84
2019-05-13T08:38:34.341Z,1034.86
2019-05-13T08:39:40.875Z,1034.82
2019-05-13T08:40:35.296Z,1034.86
2019-05-13T08:41:34.288Z,1034.87
2019-05-13T08:42:34.276Z,1034.82
2019-05-13T08:43:34.296Z,1034.85
2019-05-13T08:44:34.255Z,1034.84
2019-05-13T08:45:34.245Z,1034.83
2019-05-13T08:46:34.236Z,1034.82
2019-05-13T08:47:34.226Z,1034.84
2019-05-13T08:48:34.255Z,1034.83
2019-05-13T08:49:34.212Z,1034.83
2019-05-13T08:50:34.197Z,1034.85
2019-05-13T08:51:34.954Z,1034.77
2019-05-13T08:52:34.171Z,1034.85
2019-05-13T08:53:34.159Z,1034.83
2019-05-13T08:54:34.171Z,1034.82
2019-05-13T08:55:34.150Z,1034.85
2019-05-13T08:56:34.128Z,1034.78
2019-05-13T08:57:34.181Z,1034.79
2019-05-13T08:58:34.108Z,1034.81
2019-05-13T08:59:34.121Z,1034.83
2019-05-13T09:00:34.093Z,1034.76
2019-05-13T09:01:34.076Z,1034.73
2019-05-13T09:02:34.067Z,1034.72
2019-05-13T09:03:34.053Z,1034.65
2019-05-13T09:04:34.077Z,1034.70
2019-05-13T09:05:34.038Z,1034.69
2019-05-13T09:06:34.023Z,1034.72
2019-05-13T09:07:34.012Z,1034.77
2019-05-13T09:08:34.001Z,1034.76
2019-05-13T09:09:34.014Z,1034.78
2019-05-13T09:10:33.982Z,1034.76
2019-05-13T09:11:33.971Z,1034.78
2019-05-13T09:12:37.071Z,1034.78
2019-05-13T09:13:34.948Z,1034.74
2019-05-13T09:14:33.984Z,1034.78
2019-05-13T09:15:33.927Z,1034.73
2019-05-13T09:16:33.940Z,1034.68
2019-05-13T09:17:33.911Z,1034.64
2019-05-13T09:18:33.896Z,1034.71
2019-05-13T09:19:33.885Z,1034.69
2019-05-13T09:20:33.896Z,1034.73
2019-05-13T09:21:33.873Z,1034.69
2019-05-13T09:22:33.855Z,1034.67
2019-05-13T09:23:33.842Z,1034.69
2019-05-13T09:24:37.550Z,1034.70
2019-05-13T09:25:33.843Z,1034.66
2019-05-13T09:26:33.822Z,1034.65
2019-05-13T09:27:33.800Z,1034.68
2019-05-13T09:28:33.789Z,1034.70
2019-05-13T09:29:33.780Z,1034.69
2019-05-13T09:30:33.787Z,1034.69
2019-05-13T09:31:33.756Z,1034.71
2019-05-13T09:32:33.747Z,1034.70
2019-05-13T09:33:33.737Z,1034.65
2019-05-13T09:34:33.727Z,1034.72
2019-05-13T09:35:33.745Z,1034.70
2019-05-13T09:36:33.706Z,1034.75
2019-05-13T09:37:33.711Z,1034.63
2019-05-13T09:38:33.685Z,1034.70
2019-05-13T09:39:33.671Z,1034.71
2019-05-13T09:40:33.663Z,1034.72
2019-05-13T09:41:40.575Z,1034.66
2019-05-13T09:42:48.163Z,1034.75
2019-05-13T09:43:34.636Z,1034.69
2019-05-13T09:44:33.620Z,1034.65
2019-05-13T09:45:33.609Z,1034.66
2019-05-13T09:46:33.619Z,1034.60
2019-05-13T09:47:33.586Z,1034.68
2019-05-13T09:48:33.576Z,1034.67
2019-05-13T09:49:33.566Z,1034.63
2019-05-13T09:50:36.216Z,1034.66
2019-05-13T09:51:33.561Z,1034.68
2019-05-13T09:52:33.546Z,1034.68
2019-05-13T09:53:33.523Z,1034.62
2019-05-13T09:54:33.512Z,1034.62
2019-05-13T09:55:33.504Z,1034.64
2019-05-13T09:56:33.510Z,1034.59
2019-05-13T09:57:33.478Z,1034.65
2019-05-13T09:58:33.471Z,1034.65
2019-05-13T09:59:33.457Z,1034.64
2019-05-13T10:00:33.446Z,1034.63
2019-05-13T10:01:33.466Z,1034.63
2019-05-13T10:02:33.426Z,1034.59
2019-05-13T10:03:33.463Z,1034.62
2019-05-13T10:04:33.404Z,1034.64
2019-05-13T10:05:33.400Z,1034.61
2019-05-13T10:06:33.383Z,1034.62
2019-05-13T10:07:33.393Z,1034.58
2019-05-13T10:08:33.361Z,1034.61
2019-05-13T10:09:33.362Z,1034.60
2019-05-13T10:10:33.339Z,1034.60
2019-05-13T10:11:33.331Z,1034.57
2019-05-13T10:12:33.343Z,1034.54
2019-05-13T10:13:33.306Z,1034.53
2019-05-13T10:14:33.433Z,1034.58
2019-05-13T10:15:33.286Z,1034.53
2019-05-13T10:16:33.274Z,1034.52
2019-05-13T10:17:33.288Z,1034.58
2019-05-13T10:18:33.262Z,1034.55
2019-05-13T10:19:33.288Z,1034.53
2019-05-13T10:20:33.232Z,1034.52
2019-05-13T10:21:33.221Z,1034.54
2019-05-13T10:22:33.237Z,1034.55
2019-05-13T10:23:33.527Z,1034.57
2019-05-13T10:24:33.188Z,1034.53
2019-05-13T10:25:33.178Z,1034.61
2019-05-13T10:26:33.170Z,1034.62
2019-05-13T10:27:33.201Z,1034.63
2019-05-13T10:28:33.147Z,1034.55
2019-05-13T10:29:33.140Z,1034.52
2019-05-13T10:30:33.134Z,1034.55
2019-05-13T10:31:33.114Z,1034.53
2019-05-13T10:32:33.106Z,1034.49
2019-05-13T10:33:33.110Z,1034.47
2019-05-13T10:34:33.091Z,1034.43
2019-05-13T10:35:33.072Z,1034.44
2019-05-13T10:36:33.082Z,1034.51
2019-05-13T10:37:33.054Z,1034.41
2019-05-13T10:38:33.078Z,1034.47
2019-05-13T10:39:33.028Z,1034.42
2019-05-13T10:40:33.016Z,1034.44
2019-05-13T10:41:33.454Z,1034.44
2019-05-13T10:42:33.020Z,1034.45
2019-05-13T10:43:33.058Z,1034.45
2019-05-13T10:44:32.996Z,1034.37
2019-05-13T10:45:33.385Z,1034.37
2019-05-13T10:46:32.954Z,1034.34
2019-05-13T10:47:32.943Z,1034.34
2019-05-13T10:48:32.934Z,1034.33
2019-05-13T10:49:33.407Z,1034.35
2019-05-13T10:50:32.920Z,1034.31
2019-05-13T10:51:32.900Z,1034.30
2019-05-13T10:52:32.892Z,1034.36
2019-05-13T10:53:32.880Z,1034.31
2019-05-13T10:54:32.987Z,1034.37
2019-05-13T10:55:32.858Z,1034.32
2019-05-13T10:56:33.177Z,1034.29
2019-05-13T10:57:32.836Z,1034.32
2019-05-13T10:58:32.827Z,1034.19
2019-05-13T10:59:32.838Z,1034.30
2019-05-13T11:00:32.804Z,1034.28
2019-05-13T11:01:32.946Z,1034.19
2019-05-13T11:02:32.926Z,1034.14
2019-05-13T11:03:33.262Z,1034.13
2019-05-13T11:04:32.934Z,1034.15
2019-05-13T11:05:32.885Z,1034.13
2019-05-13T11:06:32.740Z,1034.13
2019-05-13T11:07:32.734Z,1034.09
2019-05-13T11:08:33.374Z,1034.11
2019-05-13T11:09:32.879Z,1034.11
2019-05-13T11:10:32.792Z,1034.08
2019-05-13T11:11:33.212Z,1034.06
2019-05-13T11:12:33.541Z,1034.07
2019-05-13T11:13:50.667Z,1034.03
2019-05-13T11:14:33.757Z,1034.04
2019-05-13T11:15:40.403Z,1034.00
2019-05-13T11:16:33.641Z,1034.06
2019-05-13T11:17:33.277Z,1034.05
2019-05-13T11:18:32.614Z,1034.05
2019-05-13T11:19:36.202Z,1033.99
2019-05-13T11:20:32.594Z,1033.97
2019-05-13T11:21:32.580Z,1033.93
2019-05-13T11:22:32.818Z,1033.99
2019-05-13T11:23:32.614Z,1033.89
2019-05-13T11:24:32.762Z,1033.92
2019-05-13T11:25:32.567Z,1033.92
2019-05-13T11:26:36.101Z,1033.93
2019-05-13T11:27:32.597Z,1033.91
2019-05-13T11:28:32.517Z,1033.84
2019-05-13T11:29:32.753Z,1033.81
2019-05-13T11:30:32.485Z,1033.82
2019-05-13T11:31:33.016Z,1033.84
2019-05-13T11:32:32.501Z,1033.84
2019-05-13T11:33:32.469Z,1033.90
2019-05-13T11:34:33.126Z,1033.86
2019-05-13T11:35:32.432Z,1033.89
2019-05-13T11:36:33.325Z,1033.87
2019-05-13T11:37:32.423Z,1033.90
2019-05-13T11:38:32.929Z,1033.90
2019-05-13T11:39:32.692Z,1033.87
2019-05-13T11:40:32.386Z,1033.82
2019-05-13T11:41:32.709Z,1033.84
2019-05-13T11:42:32.885Z,1033.83
2019-05-13T11:43:33.202Z,1033.83
2019-05-13T11:44:32.574Z,1033.83
2019-05-13T11:45:32.328Z,1033.85
2019-05-13T11:46:33.236Z,1033.82
2019-05-13T11:47:32.379Z,1033.78
2019-05-13T11:48:32.681Z,1033.77
2019-05-13T11:49:32.286Z,1033.72
2019-05-13T11:50:32.293Z,1033.69
2019-05-13T11:51:32.490Z,1033.73
2019-05-13T11:52:32.251Z,1033.75
2019-05-13T11:53:34.424Z,1033.76
2019-05-13T11:54:32.230Z,1033.79
2019-05-13T11:55:32.252Z,1033.70
2019-05-13T11:56:33.649Z,1033.55
2019-05-13T11:57:32.198Z,1033.70
2019-05-13T11:58:32.599Z,1033.70
2019-05-13T11:59:32.906Z,1033.65
2019-05-13T12:00:32.207Z,1033.66
2019-05-13T12:01:33.455Z,1033.67
2019-05-13T12:02:32.891Z,1033.59
2019-05-13T12:03:32.698Z,1033.59
2019-05-13T12:04:34.472Z,1033.67
2019-05-13T12:05:32.721Z,1033.64